Time;durP1;ratioP1;P1;durP2;ratioP2;P2;SDS_P1;SDS_P2;PMS_P1;PMS_P2;Temp;Humidity;BMP_temperature;BMP_pressure;BME280_temperature;BME280_humidity;BME280_pressure;Samples;Min_cycle;Max_cycle;Signal;HPM_P1;HPM_P2
2022/03/19 00:01:13;;;;;;;22.27;10.93;;;8.90;69.00;;;;;;5070458;28;20028;-80
2022/03/19 00:03:40;;;;;;;18.50;9.25;;;8.90;69.20;;;;;;5076497;28;20020;-82
2022/03/19 00:06:06;;;;;;;19.10;9.88;;;8.80;70.00;;;;;;5058638;28;20384;-78
2022/03/19 00:08:32;;;;;;;22.00;10.68;;;8.70;70.10;;;;;;5069390;28;20024;-80
2022/03/19 00:10:59;;;;;;;20.70;10.70;;;8.60;70.20;;;;;;5077201;28;20479;-78
2022/03/19 00:13:25;;;;;;;23.35;9.65;;;8.60;70.20;;;;;;5066586;28;20017;-78
2022/03/19 00:15:50;;;;;;;20.10;10.38;;;8.60;70.70;;;;;;5059838;28;20028;-80
2022/03/19 00:18:16;;;;;;;24.77;11.38;;;8.40;73.20;;;;;;5086218;28;20025;-79
2022/03/19 00:20:42;;;;;;;29.15;12.73;;;8.10;77.70;;;;;;5085516;28;20021;-77
2022/03/19 00:23:09;;;;;;;26.60;12.30;;;7.80;81.10;;;;;;5076941;28;20017;-80
2022/03/19 00:25:35;;;;;;;26.38;12.80;;;7.60;83.50;;;;;;5077290;28;20035;-80
2022/03/19 00:28:00;;;;;;;26.50;12.23;;;7.50;86.70;;;;;;5086618;28;20016;-79
2022/03/19 00:30:26;;;;;;;29.45;12.13;;;7.30;89.70;;;;;;5084173;28;20012;-79
2022/03/19 00:32:53;;;;;;;29.83;13.07;;;7.20;91.20;;;;;;5083575;28;20020;-80
2022/03/19 00:35:19;;;;;;;27.70;12.18;;;7.10;92.30;;;;;;5075347;28;20127;-80
2022/03/19 00:37:50;;;;;;;26.13;12.02;;;6.90;94.50;;;;;;5066378;28;20644;-79
2022/03/19 00:40:17;;;;;;;29.73;12.48;;;6.80;95.30;;;;;;5064549;28;20082;-78
2022/03/19 00:42:43;;;;;;;30.30;11.88;;;6.80;96.00;;;;;;5048065;28;20024;-78
2022/03/19 00:45:11;;;;;;;29.80;13.13;;;6.70;97.50;;;;;;5066123;28;20086;-78
2022/03/19 00:47:36;;;;;;;26.63;11.50;;;6.60;98.50;;;;;;5065959;28;20103;-78
2022/03/19 00:50:04;;;;;;;26.17;11.93;;;6.70;97.60;;;;;;5065725;28;20115;-78
2022/03/19 00:52:29;;;;;;;24.70;12.20;;;6.70;99.30;;;;;;5065810;28;20044;-78
2022/03/19 00:54:55;;;;;;;25.10;11.43;;;6.70;99.30;;;;;;5064833;28;20353;-78
2022/03/19 00:57:21;;;;;;;28.90;11.70;;;6.60;99.90;;;;;;5071558;28;20239;-79
2022/03/19 00:59:46;;;;;;;32.42;13.85;;;6.60;99.90;;;;;;5080255;28;20020;-79
2022/03/19 01:02:12;;;;;;;28.00;12.43;;;6.40;99.90;;;;;;5067179;28;20024;-79
2022/03/19 01:04:38;;;;;;;37.90;14.30;;;6.10;99.90;;;;;;5049166;28;20085;-79
2022/03/19 01:07:03;;;;;;;30.40;14.90;;;6.00;99.90;;;;;;5067184;28;20448;-79
2022/03/19 01:09:29;;;;;;;27.80;12.23;;;5.90;99.90;;;;;;5067470;28;20390;-78
2022/03/19 01:11:55;;;;;;;28.48;13.23;;;5.70;99.90;;;;;;5067446;28;20484;-78
2022/03/19 01:14:21;;;;;;;29.58;13.18;;;5.60;99.90;;;;;;5068959;28;20024;-78
2022/03/19 01:16:47;;;;;;;35.75;14.52;;;5.30;99.90;;;;;;5051014;28;20036;-79
2022/03/19 01:19:12;;;;;;;30.95;13.40;;;5.00;99.90;;;;;;5050696;28;20051;-78
2022/03/19 01:21:39;;;;;;;36.40;14.48;;;4.80;99.90;;;;;;5068441;28;20878;-79
2022/03/19 01:24:05;;;;;;;36.55;15.90;;;4.80;99.90;;;;;;5050680;28;20127;-79
2022/03/19 01:26:31;;;;;;;38.47;15.68;;;4.80;99.90;;;;;;5068682;28;20021;-79
2022/03/19 01:28:57;;;;;;;33.55;14.73;;;4.80;99.90;;;;;;5069026;28;20021;-79
2022/03/19 01:31:26;;;;;;;39.00;15.85;;;4.70;99.90;;;;;;5050736;28;20379;-79
2022/03/19 01:33:52;;;;;;;36.78;15.45;;;4.60;99.90;;;;;;5069137;28;20040;-78
2022/03/19 01:36:18;;;;;;;40.13;15.15;;;4.60;99.90;;;;;;5068563;28;20032;-79
2022/03/19 01:38:44;;;;;;;37.28;16.08;;;4.40;99.90;;;;;;5068618;28;20021;-79
2022/03/19 01:41:10;;;;;;;42.35;15.77;;;4.40;99.90;;;;;;5050690;28;20016;-79
2022/03/19 01:43:39;;;;;;;35.10;14.57;;;4.40;99.90;;;;;;5068833;28;20028;-78
2022/03/19 01:46:07;;;;;;;39.30;15.88;;;4.40;99.90;;;;;;5050721;28;20029;-78
2022/03/19 01:48:32;;;;;;;41.35;16.30;;;4.40;99.90;;;;;;5068780;28;20056;-79
2022/03/19 01:50:58;;;;;;;46.47;16.42;;;4.40;99.90;;;;;;5068334;28;20464;-78
2022/03/19 01:53:24;;;;;;;40.85;15.98;;;4.50;99.90;;;;;;5068403;28;20484;-79
2022/03/19 01:55:52;;;;;;;39.30;15.32;;;4.50;99.90;;;;;;5050544;28;20024;-78
2022/03/19 01:58:18;;;;;;;36.65;16.00;;;4.40;99.90;;;;;;5050363;28;20441;-79
2022/03/19 02:00:44;;;;;;;42.95;17.48;;;4.30;99.90;;;;;;5067359;28;20450;-79
2022/03/19 02:03:12;;;;;;;46.03;17.98;;;4.10;99.90;;;;;;5068731;28;20108;-79
2022/03/19 02:05:38;;;;;;;44.03;18.38;;;4.00;99.90;;;;;;5068894;28;20032;-79
2022/03/19 02:08:04;;;;;;;38.15;15.63;;;4.00;99.90;;;;;;5050868;28;20508;-79
2022/03/19 02:10:29;;;;;;;40.42;16.60;;;4.10;99.90;;;;;;5072221;28;20032;-79
2022/03/19 02:12:56;;;;;;;44.47;16.42;;;4.00;99.90;;;;;;5072197;28;20285;-79
2022/03/19 02:15:22;;;;;;;40.28;16.42;;;3.90;99.90;;;;;;5053043;28;20031;-79
2022/03/19 02:17:48;;;;;;;42.08;15.07;;;3.80;99.90;;;;;;5071325;28;20078;-79
2022/03/19 02:20:14;;;;;;;40.40;15.15;;;3.60;99.90;;;;;;5070384;28;20024;-78
2022/03/19 02:22:40;;;;;;;38.72;16.67;;;3.50;99.90;;;;;;5068942;28;20020;-79
2022/03/19 02:27:50;;;;;;;37.50;15.73;;;3.40;99.90;;;;;;5070377;28;20031;-79
2022/03/19 02:30:16;;;;;;;37.75;15.95;;;3.40;99.90;;;;;;5070089;28;20123;-78
2022/03/19 02:32:49;;;;;;;43.97;15.50;;;3.40;99.90;;;;;;5070530;28;20557;-79
2022/03/19 02:35:18;;;;;;;38.65;16.67;;;3.40;99.90;;;;;;5071152;28;20040;-79
2022/03/19 02:37:46;;;;;;;43.70;16.98;;;3.50;99.90;;;;;;5071578;28;20051;-79
2022/03/19 02:40:14;;;;;;;40.13;14.35;;;3.40;99.90;;;;;;5054280;28;20392;-79
2022/03/19 02:42:40;;;;;;;39.13;16.13;;;3.30;99.90;;;;;;5054193;28;20714;-79
2022/03/19 02:45:07;;;;;;;41.80;17.10;;;3.20;99.90;;;;;;5053473;28;20445;-79
2022/03/19 02:47:33;;;;;;;45.92;17.27;;;3.10;99.90;;;;;;5071530;28;20032;-79
2022/03/19 02:50:00;;;;;;;46.22;17.52;;;3.00;99.90;;;;;;5071640;28;20029;-79
2022/03/19 02:52:26;;;;;;;40.97;15.88;;;2.90;99.90;;;;;;5071215;28;20551;-79
2022/03/19 02:54:51;;;;;;;46.47;18.02;;;2.90;99.90;;;;;;5071756;28;20029;-79
2022/03/19 02:57:17;;;;;;;44.50;18.00;;;2.90;99.90;;;;;;5071624;28;20481;-79
2022/03/19 02:59:43;;;;;;;36.60;15.88;;;2.90;99.90;;;;;;5053596;28;20029;-79
2022/03/19 03:02:08;;;;;;;42.15;15.80;;;2.70;99.90;;;;;;5071366;28;20051;-78
2022/03/19 03:04:34;;;;;;;41.45;15.55;;;2.60;99.90;;;;;;5071209;28;20043;-79
2022/03/19 03:07:02;;;;;;;43.53;16.58;;;2.50;99.90;;;;;;5070868;28;20043;-79
2022/03/19 03:09:30;;;;;;;31.42;14.25;;;2.60;99.90;;;;;;5069537;28;20115;-80
2022/03/19 03:11:58;;;;;;;37.13;15.35;;;2.50;99.90;;;;;;5070845;28;20032;-79
2022/03/19 03:14:24;;;;;;;42.70;17.25;;;2.40;99.90;;;;;;5071360;28;20021;-79
2022/03/19 03:16:52;;;;;;;43.15;14.95;;;2.30;99.90;;;;;;5071078;28;20036;-79
2022/03/19 03:19:19;;;;;;;43.22;17.20;;;2.30;99.90;;;;;;5070421;28;20024;-79
2022/03/19 03:21:46;;;;;;;41.22;16.63;;;2.20;99.90;;;;;;5070846;28;20268;-79
2022/03/19 03:24:13;;;;;;;41.30;16.40;;;2.10;99.90;;;;;;5071215;28;20496;-79
2022/03/19 03:26:40;;;;;;;41.33;17.35;;;2.00;99.90;;;;;;5052783;28;20059;-79
2022/03/19 03:29:07;;;;;;;50.30;19.52;;;2.00;99.90;;;;;;5052696;28;20102;-78
2022/03/19 03:31:33;;;;;;;45.83;18.67;;;2.30;99.90;;;;;;5052784;28;20402;-79
2022/03/19 03:33:59;;;;;;;45.88;17.42;;;2.40;99.90;;;;;;5070585;28;20082;-78
2022/03/19 03:36:25;;;;;;;40.80;17.55;;;2.40;99.90;;;;;;5070605;28;20518;-79
2022/03/19 03:38:51;;;;;;;41.92;16.25;;;2.40;99.90;;;;;;5052667;28;20021;-79
2022/03/19 03:41:18;;;;;;;41.72;16.42;;;2.50;99.90;;;;;;5070660;28;20054;-79
2022/03/19 03:43:45;;;;;;;41.70;15.65;;;2.50;99.90;;;;;;5052491;28;20457;-79
2022/03/19 03:46:12;;;;;;;48.05;16.00;;;2.60;99.90;;;;;;5070192;28;20555;-79
2022/03/19 03:48:38;;;;;;;38.72;16.85;;;2.60;99.90;;;;;;5052068;28;20539;-79
2022/03/19 03:51:06;;;;;;;41.92;15.90;;;2.50;99.90;;;;;;5052210;28;20492;-79
2022/03/19 03:53:34;;;;;;;40.60;17.25;;;2.50;99.90;;;;;;5052227;28;20437;-79
2022/03/19 03:56:00;;;;;;;39.08;16.67;;;2.40;99.90;;;;;;5052368;28;20032;-79
2022/03/19 03:58:26;;;;;;;49.22;19.55;;;2.20;99.90;;;;;;5052516;28;20028;-79
2022/03/19 04:00:52;;;;;;;46.28;17.42;;;2.30;99.90;;;;;;5070345;28;20033;-79
2022/03/19 04:03:18;;;;;;;40.95;15.82;;;2.40;99.90;;;;;;5052089;28;20112;-79
2022/03/19 04:05:44;;;;;;;42.85;17.67;;;2.40;99.90;;;;;;5069998;28;20446;-79
2022/03/19 04:08:09;;;;;;;43.65;17.80;;;2.40;99.90;;;;;;5069892;28;20046;-80
2022/03/19 04:10:35;;;;;;;42.88;17.42;;;2.40;99.90;;;;;;5069894;28;20059;-79
2022/03/19 04:13:01;;;;;;;53.25;18.50;;;2.60;99.90;;;;;;5051997;28;20187;-79
2022/03/19 04:15:27;;;;;;;48.90;17.80;;;2.50;99.90;;;;;;5069977;28;20025;-79
2022/03/19 04:17:53;;;;;;;46.65;17.65;;;2.40;99.90;;;;;;5069970;28;20029;-79
2022/03/19 04:20:21;;;;;;;46.80;18.58;;;2.60;99.90;;;;;;5051490;28;20112;-79
2022/03/19 04:22:47;;;;;;;43.20;17.33;;;2.60;99.90;;;;;;5069510;28;20112;-79
2022/03/19 04:25:14;;;;;;;52.22;20.02;;;0.10;99.90;;;;;;5069872;28;20182;-79
2022/03/19 04:27:40;;;;;;;48.63;19.33;;;2.60;99.90;;;;;;5069621;28;20021;-79
2022/03/19 04:30:07;;;;;;;48.88;18.38;;;2.50;99.90;;;;;;5069627;28;20460;-79
2022/03/19 04:32:52;;;;;;;47.60;17.45;;;2.30;99.90;;;;;;5068956;28;20028;-79
2022/03/19 04:38:11;;;;;;;45.90;17.60;;;2.40;99.90;;;;;;5069313;28;20074;-79
2022/03/19 04:40:39;;;;;;;55.83;19.88;;;2.40;99.90;;;;;;5069207;28;20017;-79
2022/03/19 04:43:05;;;;;;;50.75;18.88;;;2.60;99.90;;;;;;5051073;28;20067;-79
2022/03/19 04:45:31;;;;;;;51.15;21.15;;;2.80;99.90;;;;;;5051317;28;20017;-79
2022/03/19 04:47:56;;;;;;;63.03;20.02;;;2.70;99.90;;;;;;5051450;28;20031;-79
2022/03/19 04:50:23;;;;;;;43.28;18.40;;;2.30;99.90;;;;;;5051004;28;20374;-79
2022/03/19 04:52:49;;;;;;;56.15;20.83;;;2.20;99.90;;;;;;5051250;28;20025;-79
2022/03/19 04:55:15;;;;;;;63.97;23.15;;;2.20;99.90;;;;;;5051136;28;20488;-79
2022/03/19 04:57:41;;;;;;;57.63;21.85;;;2.20;99.90;;;;;;5051196;28;20024;-78
2022/03/19 05:00:10;;;;;;;53.55;20.48;;;2.30;99.90;;;;;;5069096;28;20078;-79
2022/03/19 05:02:36;;;;;;;59.25;19.27;;;2.20;99.90;;;;;;5069236;28;20107;-79
2022/03/19 05:05:02;;;;;;;50.30;20.00;;;2.20;99.90;;;;;;5068018;28;20167;-79
2022/03/19 05:07:28;;;;;;;53.60;21.83;;;2.20;99.90;;;;;;5067201;28;20119;-79
2022/03/19 05:12:43;;;;;;;53.17;20.52;;;2.10;99.90;;;;;;5067909;28;20032;-79
2022/03/19 05:15:14;;;;;;;50.38;20.38;;;2.10;99.90;;;;;;5049396;28;20275;-79
2022/03/19 05:17:40;;;;;;;51.97;18.67;;;2.10;99.90;;;;;;5069021;28;20027;-79
2022/03/19 05:20:07;;;;;;;47.38;18.50;;;2.00;99.90;;;;;;5067554;28;20028;-79
2022/03/19 05:22:34;;;;;;;54.83;22.98;;;2.00;99.90;;;;;;5050757;28;20020;-79
2022/03/19 05:25:00;;;;;;;54.25;20.95;;;1.90;99.90;;;;;;5069240;28;20032;-79
2022/03/19 05:27:26;;;;;;;57.97;22.48;;;2.00;99.90;;;;;;5067997;28;20078;-79
2022/03/19 05:29:52;;;;;;;51.33;20.58;;;2.10;99.90;;;;;;5050960;28;20408;-79
2022/03/19 05:32:19;;;;;;;57.55;20.33;;;2.00;99.90;;;;;;5050980;28;20078;-79
2022/03/19 05:34:45;;;;;;;53.67;19.85;;;1.90;99.90;;;;;;5050896;28;20081;-79
2022/03/19 05:37:12;;;;;;;48.35;18.20;;;1.60;99.90;;;;;;5068726;28;20079;-79
2022/03/19 05:39:38;;;;;;;47.13;18.48;;;1.50;99.90;;;;;;5050726;28;20497;-79
2022/03/19 05:42:05;;;;;;;55.08;21.35;;;1.40;99.90;;;;;;5051209;28;20062;-79
2022/03/19 05:44:31;;;;;;;52.72;18.58;;;1.40;99.90;;;;;;5054733;28;20066;-80
2022/03/19 05:47:00;;;;;;;52.75;19.75;;;1.30;99.90;;;;;;5054828;28;20028;-79
2022/03/19 05:49:27;;;;;;;51.92;20.33;;;1.30;99.90;;;;;;5072787;28;20412;-79
2022/03/19 05:51:53;;;;;;;56.97;20.55;;;1.20;99.90;;;;;;5054161;28;20051;-79
2022/03/19 05:54:19;;;;;;;56.25;19.45;;;1.10;99.90;;;;;;5054525;28;20024;-80
2022/03/19 05:56:45;;;;;;;47.35;19.25;;;1.10;99.90;;;;;;5054540;28;20029;-80
2022/03/19 05:59:12;;;;;;;57.05;18.45;;;1.10;99.90;;;;;;5054747;28;20032;-80
2022/03/19 06:01:38;;;;;;;48.03;18.63;;;1.20;99.90;;;;;;5072674;28;20021;-80
2022/03/19 06:04:04;;;;;;;52.47;21.10;;;1.00;99.90;;;;;;5054419;28;20060;-80
2022/03/19 06:06:30;;;;;;;50.40;18.70;;;1.00;99.90;;;;;;5054343;28;20488;-80
2022/03/19 06:08:56;;;;;;;51.55;21.17;;;1.10;99.90;;;;;;5072488;28;20044;-79
2022/03/19 06:11:21;;;;;;;50.17;20.05;;;1.30;99.90;;;;;;5072287;28;20181;-80
2022/03/19 06:13:47;;;;;;;53.67;18.95;;;1.30;99.90;;;;;;5053784;28;20541;-79
2022/03/19 06:16:13;;;;;;;52.95;20.85;;;1.30;99.90;;;;;;5092336;28;20024;-79
2022/03/19 06:18:39;;;;;;;46.55;19.08;;;1.30;99.90;;;;;;5074304;28;20032;-79
2022/03/19 06:21:05;;;;;;;53.25;21.25;;;1.30;99.90;;;;;;5073933;28;20040;-79
2022/03/19 06:23:31;;;;;;;59.20;20.70;;;1.30;99.90;;;;;;5092447;28;20032;-79
2022/03/19 06:25:57;;;;;;;61.22;21.88;;;1.40;99.90;;;;;;5091006;28;20028;-79
2022/03/19 06:28:23;;;;;;;56.97;20.67;;;1.60;99.90;;;;;;5092219;28;20020;-80
2022/03/19 06:30:49;;;;;;;52.65;19.33;;;1.70;99.90;;;;;;5073822;28;20131;-79
2022/03/19 06:33:15;;;;;;;57.05;21.35;;;1.60;99.90;;;;;;5090732;28;20459;-79
2022/03/19 06:38:28;;;;;;;52.20;21.35;;;1.80;99.90;;;;;;5092500;28;20034;-79
2022/03/19 06:40:54;;;;;;;62.38;22.17;;;1.70;99.90;;;;;;5090727;28;20051;-80
2022/03/19 06:43:21;;;;;;;68.47;24.17;;;1.90;99.90;;;;;;5073833;28;20016;-80
2022/03/19 06:45:46;;;;;;;60.53;22.95;;;2.30;99.90;;;;;;5091896;28;20028;-79
2022/03/19 06:48:12;;;;;;;66.55;24.98;;;2.50;99.90;;;;;;5073717;28;20034;-79
2022/03/19 06:50:38;;;;;;;60.63;23.27;;;2.50;99.90;;;;;;5091665;28;20117;-79
2022/03/19 06:53:04;;;;;;;57.65;23.33;;;2.60;99.90;;;;;;5090139;28;20384;-78
2022/03/19 06:55:31;;;;;;;62.83;23.45;;;2.70;99.90;;;;;;5073103;28;20044;-79
2022/03/19 06:57:56;;;;;;;65.50;24.98;;;2.90;99.90;;;;;;5073235;28;20020;-79
2022/03/19 07:00:23;;;;;;;57.90;22.48;;;2.90;99.90;;;;;;5091808;28;20038;-80
2022/03/19 07:02:53;;;;;;;68.53;24.13;;;3.10;99.90;;;;;;5091682;28;20031;-80
2022/03/19 07:05:23;;;;;;;59.40;23.50;;;3.20;99.90;;;;;;5092036;28;20024;-79
2022/03/19 07:07:50;;;;;;;61.80;22.92;;;3.20;99.90;;;;;;5091358;28;20074;-79
2022/03/19 07:10:18;;;;;;;62.67;25.10;;;3.40;99.90;;;;;;5092235;28;20043;-79
2022/03/19 07:12:44;;;;;;;63.60;25.33;;;3.50;99.90;;;;;;5073832;28;20024;-80
2022/03/19 07:15:18;;;;;;;63.28;24.00;;;3.50;99.90;;;;;;5091483;28;20095;-79
2022/03/19 07:17:44;;;;;;;68.00;25.33;;;3.60;99.90;;;;;;5073124;28;20032;-79
2022/03/19 07:20:11;;;;;;;65.10;24.38;;;3.60;99.90;;;;;;5091460;28;20016;-79
2022/03/19 07:22:47;;;;;;;66.22;25.33;;;3.70;99.90;;;;;;5090886;28;20020;-79
2022/03/19 07:25:13;;;;;;;56.80;21.70;;;3.80;99.90;;;;;;5091225;28;20476;-79
2022/03/19 07:27:39;;;;;;;62.10;26.48;;;3.80;99.90;;;;;;5091220;28;20045;-79
2022/03/19 07:30:05;;;;;;;64.78;24.65;;;4.00;99.90;;;;;;5072913;28;20301;-79
2022/03/19 07:32:31;;;;;;;67.35;25.05;;;4.10;99.90;;;;;;5091189;28;20431;-79
2022/03/19 07:34:56;;;;;;;65.28;24.77;;;4.10;99.90;;;;;;5072871;28;20039;-78
2022/03/19 07:37:22;;;;;;;67.28;23.35;;;4.20;99.90;;;;;;5090848;28;20244;-78
2022/03/19 07:39:48;;;;;;;69.28;24.45;;;4.20;99.90;;;;;;5093610;28;20020;-78
2022/03/19 07:42:13;;;;;;;58.92;25.42;;;4.10;99.90;;;;;;5089465;28;20095;-78
2022/03/19 07:44:39;;;;;;;65.47;23.92;;;4.20;99.90;;;;;;5072215;28;20129;-79
2022/03/19 07:47:05;;;;;;;66.82;25.23;;;4.30;99.90;;;;;;5090736;28;20393;-78
2022/03/19 07:49:30;;;;;;;65.25;25.88;;;4.40;99.90;;;;;;5089346;28;20038;-78
2022/03/19 07:51:56;;;;;;;69.13;25.88;;;4.60;99.90;;;;;;5069945;28;20051;-78
2022/03/19 07:54:27;;;;;;;67.72;25.80;;;4.70;99.90;;;;;;5087595;28;20515;-78
2022/03/19 07:56:53;;;;;;;56.33;22.08;;;4.60;99.90;;;;;;5071189;28;20020;-78
2022/03/19 07:59:20;;;;;;;62.78;24.63;;;4.70;99.90;;;;;;5089469;28;20017;-79
2022/03/19 08:01:48;;;;;;;61.60;25.50;;;3.60;99.90;;;;;;5089608;28;20490;-79
2022/03/19 08:04:15;;;;;;;70.80;25.45;;;5.00;99.90;;;;;;5088932;28;20024;-78
2022/03/19 08:06:40;;;;;;;58.25;23.58;;;5.10;99.90;;;;;;5089017;28;20412;-78
2022/03/19 08:09:08;;;;;;;59.38;23.48;;;5.20;99.90;;;;;;5089058;28;20031;-79
2022/03/19 08:11:34;;;;;;;63.97;26.58;;;7.00;99.90;;;;;;5089773;28;20028;-78
2022/03/19 08:14:01;;;;;;;57.70;23.73;;;5.60;99.90;;;;;;5090368;28;20090;-78
2022/03/19 08:16:26;;;;;;;60.97;24.52;;;5.60;99.90;;;;;;5090021;28;20545;-79
2022/03/19 08:18:52;;;;;;;63.58;26.50;;;5.80;99.90;;;;;;5088929;28;20024;-78
2022/03/19 08:21:18;;;;;;;57.67;22.55;;;5.70;99.90;;;;;;5089742;28;20104;-78
2022/03/19 08:23:46;;;;;;;57.65;24.83;;;5.80;99.90;;;;;;5090015;28;20095;-78
2022/03/19 08:26:12;;;;;;;64.57;23.92;;;5.80;99.90;;;;;;5071746;28;20170;-78
2022/03/19 08:28:37;;;;;;;54.83;23.30;;;5.90;99.90;;;;;;5090191;28;20540;-78
2022/03/19 08:31:03;;;;;;;55.08;22.45;;;5.90;99.90;;;;;;5090097;28;20115;-79
2022/03/19 08:33:29;;;;;;;58.58;24.40;;;5.90;99.90;;;;;;5090174;28;20095;-78
2022/03/19 08:35:55;;;;;;;64.80;25.15;;;6.10;99.90;;;;;;5089987;28;20097;-78
2022/03/19 08:41:05;;;;;;;63.30;24.73;;;7.50;99.90;;;;;;5090059;28;20101;-78
2022/03/19 08:43:30;;;;;;;56.58;22.35;;;6.20;99.90;;;;;;5088469;28;20028;-78
2022/03/19 08:45:56;;;;;;;52.72;22.90;;;6.30;99.90;;;;;;5088276;28;20047;-78
2022/03/19 08:48:22;;;;;;;51.15;22.13;;;6.50;99.90;;;;;;5089869;28;20048;-78
2022/03/19 08:50:48;;;;;;;59.20;22.63;;;6.50;99.90;;;;;;5071370;28;20083;-78
2022/03/19 08:53:15;;;;;;;60.17;23.08;;;6.70;99.90;;;;;;5071113;28;20667;-78
2022/03/19 08:55:41;;;;;;;51.70;21.40;;;6.90;99.90;;;;;;5089912;28;20117;-78
2022/03/19 08:58:07;;;;;;;57.72;23.20;;;7.10;99.90;;;;;;5071004;28;20115;-78
2022/03/19 09:00:34;;;;;;;56.22;23.23;;;7.10;99.90;;;;;;5089526;28;20102;-79
2022/03/19 09:03:00;;;;;;;50.85;21.38;;;7.10;99.90;;;;;;5071394;28;20027;-79
2022/03/19 09:05:27;;;;;;;47.75;20.27;;;7.00;99.90;;;;;;5089974;28;20149;-78
2022/03/19 09:07:53;;;;;;;56.45;21.70;;;6.90;99.90;;;;;;5089606;28;20012;-78
2022/03/19 09:10:19;;;;;;;53.13;22.00;;;7.00;99.90;;;;;;5087716;28;20092;-78
2022/03/19 09:12:46;;;;;;;53.22;20.80;;;7.10;99.90;;;;;;5082805;28;20040;-78
2022/03/19 09:15:13;;;;;;;53.90;22.60;;;6.90;99.90;;;;;;5069051;28;20031;-78
2022/03/19 09:17:39;;;;;;;52.03;22.17;;;6.90;99.90;;;;;;5068358;28;20020;-78
2022/03/19 09:20:06;;;;;;;49.40;22.33;;;7.00;99.90;;;;;;5069080;28;20435;-78
2022/03/19 09:22:31;;;;;;;50.33;20.77;;;7.20;99.90;;;;;;5071130;28;20028;-78
2022/03/19 09:24:57;;;;;;;44.58;19.42;;;7.30;99.90;;;;;;5072390;28;20051;-77
2022/03/19 09:27:23;;;;;;;51.75;22.60;;;7.40;99.90;;;;;;5069278;28;20519;-77
2022/03/19 09:29:49;;;;;;;52.45;21.20;;;7.40;99.90;;;;;;5069154;28;20033;-78
2022/03/19 09:32:17;;;;;;;55.67;22.25;;;7.60;99.90;;;;;;5069035;28;20029;-78
2022/03/19 09:34:47;;;;;;;50.88;25.48;;;7.80;99.90;;;;;;5051129;28;20086;-78
2022/03/19 09:37:14;;;;;;;47.90;21.10;;;7.70;99.90;;;;;;5068839;28;20028;-78
2022/03/19 09:39:40;;;;;;;48.92;21.35;;;7.80;99.90;;;;;;5069113;28;20100;-78
2022/03/19 09:42:11;;;;;;;51.80;21.05;;;7.70;99.90;;;;;;5051246;28;20120;-78
2022/03/19 09:44:37;;;;;;;49.05;19.60;;;7.80;99.90;;;;;;5069193;28;20086;-78
2022/03/19 09:47:04;;;;;;;44.55;20.33;;;7.90;99.90;;;;;;5069357;28;20021;-77
2022/03/19 09:49:31;;;;;;;45.92;20.63;;;8.10;99.90;;;;;;5069132;28;20052;-77
2022/03/19 09:52:01;;;;;;;44.42;19.58;;;8.20;99.90;;;;;;5068399;28;20063;-78
2022/03/19 09:54:27;;;;;;;48.53;23.00;;;8.40;99.90;;;;;;5050759;28;20392;-78
2022/03/19 09:56:53;;;;;;;55.85;21.73;;;8.60;99.90;;;;;;5068548;28;20029;-78
2022/03/19 09:59:22;;;;;;;47.15;22.50;;;8.70;99.90;;;;;;5068674;28;20028;-77
2022/03/19 10:01:48;;;;;;;49.60;19.60;;;8.70;99.90;;;;;;5069074;28;20025;-78
2022/03/19 10:04:20;;;;;;;41.42;18.52;;;8.90;99.90;;;;;;5068850;28;20072;-78
2022/03/19 10:09:46;;;;;;;46.72;20.65;;;8.80;99.90;;;;;;5068759;28;20063;-77
2022/03/19 10:12:16;;;;;;;43.92;19.02;;;8.80;99.90;;;;;;5064080;28;20028;-76
2022/03/19 10:14:46;;;;;;;50.00;22.75;;;8.80;99.90;;;;;;5067191;28;20510;-76
2022/03/19 10:17:25;;;;;;;41.03;19.58;;;8.90;99.90;;;;;;5067818;28;20037;-77
2022/03/19 10:19:51;;;;;;;48.70;20.27;;;9.00;99.90;;;;;;5066738;28;20029;-77
2022/03/19 10:22:24;;;;;;;45.40;21.02;;;9.10;99.70;;;;;;5068162;28;20450;-77
2022/03/19 10:24:56;;;;;;;45.10;20.13;;;9.20;99.20;;;;;;5068382;28;20028;-78
2022/03/19 10:27:22;;;;;;;50.88;20.92;;;9.50;99.90;;;;;;5068252;28;20025;-77
2022/03/19 10:30:09;;;;;;;42.33;19.13;;;9.50;95.50;;;;;;5068245;28;20025;-77
2022/03/19 10:32:39;;;;;;;47.00;20.98;;;9.50;92.90;;;;;;5072167;28;20523;-77
2022/03/19 10:35:05;;;;;;;47.47;19.80;;;9.60;93.10;;;;;;5071891;28;20034;-77
2022/03/19 10:37:39;;;;;;;40.42;19.73;;;9.70;93.90;;;;;;5069789;28;20033;-77
2022/03/19 10:40:08;;;;;;;43.17;20.73;;;9.70;91.70;;;;;;5071944;28;20023;-77
2022/03/19 10:42:39;;;;;;;40.45;18.55;;;9.80;92.20;;;;;;5072180;28;20481;-77
2022/03/19 10:45:07;;;;;;;40.35;18.50;;;9.70;91.90;;;;;;5071862;28;20043;-78
2022/03/19 10:47:43;;;;;;;48.70;21.48;;;9.80;92.40;;;;;;5072888;28;20422;-77
2022/03/19 10:50:11;;;;;;;44.63;19.73;;;9.80;91.70;;;;;;5080745;28;20062;-77
2022/03/19 10:52:37;;;;;;;41.60;20.35;;;10.00;91.70;;;;;;5075769;28;20048;-77
2022/03/19 10:55:04;;;;;;;38.15;19.13;;;10.10;89.00;;;;;;5072502;28;20013;-77
2022/03/19 10:57:31;;;;;;;42.28;18.50;;;10.00;85.00;;;;;;5070827;28;20036;-77
2022/03/19 10:59:56;;;;;;;42.05;18.63;;;10.00;84.70;;;;;;5071425;28;20024;-77
2022/03/19 11:02:27;;;;;;;40.65;18.45;;;10.50;87.40;;;;;;5070738;28;20453;-77
2022/03/19 11:04:53;;;;;;;43.53;20.15;;;10.50;83.50;;;;;;5069784;28;20020;-78
2022/03/19 11:07:22;;;;;;;35.47;15.82;;;10.60;84.40;;;;;;5069651;28;20021;-77
2022/03/19 11:09:51;;;;;;;38.70;17.17;;;10.50;81.70;;;;;;5069741;28;20499;-77
2022/03/19 11:12:21;;;;;;;41.33;18.17;;;10.40;81.00;;;;;;5070093;28;20267;-78
2022/03/19 11:14:54;;;;;;;38.53;18.15;;;10.60;82.70;;;;;;5068734;28;20020;-78
2022/03/19 11:17:32;;;;;;;38.17;17.73;;;10.60;81.80;;;;;;5069521;28;20028;-77
2022/03/19 11:20:08;;;;;;;40.42;17.98;;;10.90;80.40;;;;;;5069523;28;20032;-77
2022/03/19 11:22:41;;;;;;;34.92;16.20;;;11.00;82.00;;;;;;5069215;28;20047;-77
2022/03/19 11:25:31;;;;;;;37.92;18.92;;;11.00;80.10;;;;;;5069658;28;20025;-78
2022/03/19 11:28:09;;;;;;;32.92;16.25;;;11.10;80.10;;;;;;5037242;28;20185;-78
2022/03/19 11:30:36;;;;;;;38.65;17.25;;;11.30;80.40;;;;;;5069969;28;20047;-77
2022/03/19 11:33:14;;;;;;;31.35;14.70;;;11.30;77.90;;;;;;5070195;28;20044;-77
2022/03/19 11:35:43;;;;;;;38.85;17.83;;;10.90;75.60;;;;;;5070817;28;20029;-77
2022/03/19 11:38:16;;;;;;;37.55;17.45;;;11.00;76.70;;;;;;5070479;28;20025;-77
2022/03/19 11:40:47;;;;;;;32.58;15.70;;;11.00;76.30;;;;;;5070998;28;20103;-77
2022/03/19 11:43:30;;;;;;;33.70;15.10;;;11.00;75.00;;;;;;5070658;28;20025;-78
2022/03/19 11:45:57;;;;;;;29.33;15.18;;;11.20;75.40;;;;;;5069566;28;20017;-78
2022/03/19 11:48:35;;;;;;;32.72;15.40;;;11.30;74.30;;;;;;5070591;28;20024;-77
2022/03/19 11:51:29;;;;;;;33.65;14.45;;;11.40;74.70;;;;;;5070431;28;20524;-78
2022/03/19 11:54:19;;;;;;;30.80;15.25;;;11.70;72.70;;;;;;5070339;28;20028;-77
2022/03/19 11:56:46;;;;;;;33.92;16.00;;;11.80;72.60;;;;;;5069398;28;20034;-77
2022/03/19 11:59:23;;;;;;;33.63;15.55;;;11.90;72.90;;;;;;5070446;28;20047;-77
2022/03/19 12:01:58;;;;;;;29.75;15.55;;;11.80;71.80;;;;;;5070314;28;20495;-77
2022/03/19 12:04:24;;;;;;;32.72;14.90;;;11.90;69.80;;;;;;5070384;28;20104;-77
2022/03/19 12:06:57;;;;;;;29.33;16.58;;;11.20;68.50;;;;;;5051927;28;20107;-78
2022/03/19 12:09:57;;;;;;;31.65;15.52;;;12.10;69.90;;;;;;5070272;28;20052;-77
2022/03/19 12:12:24;;;;;;;31.15;14.75;;;12.40;67.80;;;;;;5070443;28;20021;-77
2022/03/19 12:14:50;;;;;;;32.97;14.60;;;13.20;68.30;;;;;;5070407;28;20028;-78
2022/03/19 12:17:30;;;;;;;31.83;15.13;;;13.90;64.60;;;;;;5070066;28;20024;-78
2022/03/19 12:20:01;;;;;;;31.48;15.07;;;13.80;64.20;;;;;;5069735;28;20024;-77
2022/03/19 12:22:36;;;;;;;27.88;14.05;;;14.50;63.20;;;;;;5069233;28;20020;-78
2022/03/19 12:25:40;;;;;;;25.77;14.68;;;14.40;60.60;;;;;;5069454;28;20107;-78
2022/03/19 12:28:06;;;;;;;27.42;13.68;;;14.80;59.90;;;;;;4987389;28;20022;-77
2022/03/19 12:30:35;;;;;;;26.23;13.60;;;14.90;59.20;;;;;;4987598;28;20526;-78
2022/03/19 12:33:01;;;;;;;27.55;15.40;;;15.60;59.90;;;;;;5027217;28;20113;-78
2022/03/19 12:35:39;;;;;;;29.90;15.82;;;16.20;57.60;;;;;;5051516;28;20056;-78
2022/03/19 12:38:04;;;;;;;33.28;16.38;;;16.40;57.20;;;;;;5069163;28;20031;-77
2022/03/19 12:41:23;;;;;;;25.63;14.32;;;15.90;57.20;;;;;;5069800;28;20123;-77
2022/03/19 12:43:18;;;;;;;33.90;15.48;;;15.30;58.40;;;;;;5069027;28;20035;-77
2022/03/19 12:45:49;;;;;;;24.63;13.75;;;15.70;56.80;;;;;;5069650;28;20035;-77
2022/03/19 12:48:18;;;;;;;25.63;13.32;;;16.50;55.10;;;;;;5069562;28;20029;-78
2022/03/19 12:50:56;;;;;;;25.67;14.80;;;16.30;55.20;;;;;;5069282;28;20048;-78
2022/03/19 12:53:31;;;;;;;27.10;14.20;;;16.20;54.30;;;;;;5068392;28;20024;-77
2022/03/19 12:56:14;;;;;;;28.77;15.00;;;16.30;53.20;;;;;;5068869;28;20016;-78